Time;durP1;ratioP1;P1;durP2;ratioP2;P2;SDS_P1;SDS_P2;PMS_P1;PMS_P2;Temp;Humidity;BMP_temperature;BMP_pressure;BME280_temperature;BME280_humidity;BME280_pressure;Samples;Min_cycle;Max_cycle;Signal;HPM_P1;HPM_P2
2022/12/22 03:26:15;;;;;;;62.92;18.50;;;;;;;;;;5008077;28;20080;-65
2022/12/22 03:28:41;;;;;;;61.35;19.88;;;;;;;;;;5013924;28;20061;-65
2022/12/22 03:31:06;;;;;;;61.50;20.70;;;;;;;;;;5011149;28;20031;-65
2022/12/22 03:33:32;;;;;;;56.65;20.45;;;;;;;;;;4994150;28;20042;-65
2022/12/22 03:35:58;;;;;;;60.10;17.88;;;;;;;;;;4993614;28;20058;-65
2022/12/22 03:38:24;;;;;;;52.58;18.55;;;;;;;;;;4993983;28;20057;-65
2022/12/22 03:40:50;;;;;;;62.10;18.88;;;;;;;;;;4994148;28;20026;-65
2022/12/22 03:46:34;;;;;;;53.90;20.17;;;;;;;;;;4994432;28;20448;-65
2022/12/22 03:49:11;;;;;;;52.22;19.73;;;;;;;;;;4991852;28;20088;-65
2022/12/22 03:51:40;;;;;;;44.33;17.33;;;;;;;;;;4993760;28;20023;-66
2022/12/22 03:54:06;;;;;;;48.97;19.60;;;;;;;;;;4993797;28;20026;-65
2022/12/22 03:56:32;;;;;;;42.72;16.83;;;;;;;;;;4993735;28;20105;-66
2022/12/22 03:58:57;;;;;;;51.58;19.35;;;;;;;;;;4993835;28;20105;-64
2022/12/22 04:01:23;;;;;;;62.55;16.35;;;;;;;;;;4993762;28;20030;-65
2022/12/22 04:03:49;;;;;;;73.95;18.67;;;;;;;;;;4993753;28;20446;-65
2022/12/22 04:06:15;;;;;;;55.65;16.80;;;;;;;;;;4993201;28;20030;-65
2022/12/22 04:08:40;;;;;;;62.25;18.98;;;;;;;;;;4993412;28;20113;-65
2022/12/22 04:13:50;;;;;;;62.17;18.63;;;;;;;;;;4993618;28;20038;-65
2022/12/22 04:16:15;;;;;;;89.63;18.83;;;;;;;;;;4993265;28;20022;-66
2022/12/22 04:18:41;;;;;;;77.97;17.83;;;;;;;;;;4993165;28;20113;-65
2022/12/22 04:21:06;;;;;;;80.88;17.70;;;;;;;;;;4993341;28;20057;-65
2022/12/22 04:23:31;;;;;;;77.20;17.25;;;;;;;;;;4993180;28;20125;-65
2022/12/22 04:25:58;;;;;;;54.63;15.73;;;;;;;;;;4995673;28;20340;-65
2022/12/22 04:28:23;;;;;;;73.30;17.20;;;;;;;;;;4992992;28;20030;-64
2022/12/22 04:30:50;;;;;;;58.70;15.75;;;;;;;;;;4993396;28;20023;-65
2022/12/22 04:33:16;;;;;;;56.70;16.67;;;;;;;;;;4993067;28;20041;-65
2022/12/22 04:35:41;;;;;;;49.08;13.65;;;;;;;;;;4993299;28;20034;-65
2022/12/22 04:38:07;;;;;;;92.68;17.30;;;;;;;;;;4992899;28;20026;-65
2022/12/22 04:40:32;;;;;;;51.03;16.90;;;;;;;;;;4991603;28;20022;-65
2022/12/22 04:42:57;;;;;;;52.28;16.88;;;;;;;;;;4993010;28;20022;-65
2022/12/22 04:45:23;;;;;;;51.38;16.60;;;;;;;;;;4992424;28;20480;-65
2022/12/22 04:47:48;;;;;;;60.42;18.33;;;;;;;;;;4992508;28;20026;-65
2022/12/22 04:50:14;;;;;;;55.15;17.58;;;;;;;;;;4993026;28;20445;-66
2022/12/22 04:52:39;;;;;;;45.40;16.38;;;;;;;;;;4993104;28;20026;-65
2022/12/22 04:55:05;;;;;;;44.60;15.85;;;;;;;;;;4993027;28;20028;-65
2022/12/22 04:57:31;;;;;;;40.80;15.98;;;;;;;;;;4993020;28;20030;-65
2022/12/22 04:59:56;;;;;;;36.03;14.10;;;;;;;;;;4992697;28;20496;-65
2022/12/22 05:02:22;;;;;;;37.92;16.10;;;;;;;;;;4992557;28;20370;-65
2022/12/22 05:04:47;;;;;;;37.30;14.20;;;;;;;;;;4992897;28;20030;-65
2022/12/22 05:07:13;;;;;;;38.75;15.75;;;;;;;;;;4992635;28;20397;-65
2022/12/22 05:09:38;;;;;;;37.08;16.38;;;;;;;;;;4992593;28;20125;-65
2022/12/22 05:12:53;;;;;;;38.05;16.65;;;;;;;;;;4992649;28;20682;-65
2022/12/22 05:14:49;;;;;;;41.70;17.58;;;;;;;;;;4992579;28;20496;-65
2022/12/22 05:17:15;;;;;;;36.28;13.73;;;;;;;;;;4992445;28;20027;-66
2022/12/22 05:19:40;;;;;;;34.67;16.27;;;;;;;;;;4992550;28;20029;-66
2022/12/22 05:22:06;;;;;;;37.80;16.40;;;;;;;;;;4992813;28;20025;-65
2022/12/22 05:24:31;;;;;;;39.17;16.83;;;;;;;;;;4992291;28;20038;-65
2022/12/22 05:26:56;;;;;;;37.00;16.92;;;;;;;;;;4999229;28;20072;-66
2022/12/22 05:29:22;;;;;;;37.03;16.73;;;;;;;;;;4992445;28;20026;-65
2022/12/22 05:31:47;;;;;;;40.03;17.30;;;;;;;;;;4992376;28;20023;-65
2022/12/22 05:34:13;;;;;;;35.90;17.42;;;;;;;;;;4992643;28;20061;-66
2022/12/22 05:36:38;;;;;;;31.92;16.48;;;;;;;;;;4992534;28;20462;-67
2022/12/22 05:39:03;;;;;;;35.58;17.10;;;;;;;;;;4992307;28;20549;-66
2022/12/22 05:41:29;;;;;;;50.90;21.15;;;;;;;;;;4992377;28;20029;-67
2022/12/22 05:43:54;;;;;;;33.22;16.00;;;;;;;;;;4991144;28;20022;-67
2022/12/22 05:46:21;;;;;;;31.42;15.98;;;;;;;;;;4992239;28;20077;-66
2022/12/22 05:48:46;;;;;;;32.15;15.88;;;;;;;;;;4992260;28;20434;-66
2022/12/22 05:51:12;;;;;;;31.92;16.40;;;;;;;;;;4992292;28;20030;-67
2022/12/22 05:53:37;;;;;;;31.38;16.52;;;;;;;;;;4992263;28;20033;-67
2022/12/22 05:56:03;;;;;;;36.80;16.23;;;;;;;;;;4992348;28;20057;-66
2022/12/22 05:58:29;;;;;;;32.17;17.27;;;;;;;;;;4994595;28;20041;-67
2022/12/22 06:00:57;;;;;;;36.22;17.38;;;;;;;;;;4995762;28;20126;-66
2022/12/22 06:03:22;;;;;;;30.63;16.35;;;;;;;;;;4996105;28;20486;-66
2022/12/22 06:05:51;;;;;;;30.30;16.73;;;;;;;;;;4995849;28;20037;-66
2022/12/22 06:08:17;;;;;;;27.77;15.63;;;;;;;;;;4995711;28;20116;-66
2022/12/22 06:10:42;;;;;;;31.40;17.13;;;;;;;;;;4995913;28;20074;-66
2022/12/22 06:13:08;;;;;;;30.67;17.17;;;;;;;;;;4995552;28;20034;-66
2022/12/22 06:15:33;;;;;;;30.02;17.58;;;;;;;;;;4995637;28;20371;-65
2022/12/22 06:17:58;;;;;;;29.42;16.27;;;;;;;;;;4995596;28;20038;-67
2022/12/22 06:20:24;;;;;;;30.08;17.77;;;;;;;;;;4995398;28;20022;-67
2022/12/22 06:22:49;;;;;;;26.58;14.75;;;;;;;;;;4995541;28;20034;-66
2022/12/22 06:25:15;;;;;;;29.55;16.92;;;;;;;;;;5000634;28;20788;-66
2022/12/22 06:27:41;;;;;;;24.88;14.15;;;;;;;;;;4995102;28;20106;-66
2022/12/22 06:30:07;;;;;;;32.13;16.52;;;;;;;;;;4995196;28;20058;-66
2022/12/22 06:32:36;;;;;;;30.98;16.83;;;;;;;;;;4995369;28;20026;-65
2022/12/22 06:35:02;;;;;;;26.55;17.00;;;;;;;;;;4995476;28;20030;-67
2022/12/22 06:37:27;;;;;;;29.23;16.50;;;;;;;;;;4995261;28;20038;-66
2022/12/22 06:39:53;;;;;;;16.20;10.48;;;;;;;;;;4995243;28;20030;-66
2022/12/22 06:45:02;;;;;;;28.67;16.30;;;;;;;;;;4995145;28;20125;-65
2022/12/22 06:47:27;;;;;;;20.70;12.48;;;;;;;;;;4995183;28;20109;-66
2022/12/22 06:49:53;;;;;;;25.50;14.38;;;;;;;;;;4995067;28;20476;-66
2022/12/22 06:52:18;;;;;;;20.25;12.82;;;;;;;;;;4994777;28;20022;-66
2022/12/22 06:54:44;;;;;;;30.90;16.98;;;;;;;;;;4994850;28;20041;-65
2022/12/22 06:57:09;;;;;;;34.45;17.15;;;;;;;;;;4999394;28;20049;-65
2022/12/22 06:59:35;;;;;;;28.88;15.38;;;;;;;;;;4994626;28;20112;-66
2022/12/22 07:02:00;;;;;;;29.70;16.48;;;;;;;;;;4994696;28;20031;-66
2022/12/22 07:04:26;;;;;;;28.60;15.68;;;;;;;;;;4994582;28;20026;-65
2022/12/22 07:06:51;;;;;;;33.17;16.20;;;;;;;;;;4994724;28;20027;-66
2022/12/22 07:09:17;;;;;;;28.27;17.38;;;;;;;;;;4993734;28;20026;-67
2022/12/22 07:11:42;;;;;;;28.80;16.40;;;;;;;;;;4994819;28;20030;-67
2022/12/22 07:14:07;;;;;;;30.10;16.75;;;;;;;;;;4994317;28;20026;-66
2022/12/22 07:16:33;;;;;;;26.98;16.50;;;;;;;;;;4994484;28;20034;-66
2022/12/22 07:18:58;;;;;;;28.05;16.00;;;;;;;;;;4994487;28;20030;-66
2022/12/22 07:21:24;;;;;;;28.65;16.13;;;;;;;;;;4994678;28;20461;-66
2022/12/22 07:23:49;;;;;;;27.80;16.15;;;;;;;;;;4994130;28;20038;-65
2022/12/22 07:26:15;;;;;;;26.40;15.48;;;;;;;;;;5004773;28;20052;-66
2022/12/22 07:28:41;;;;;;;25.30;12.52;;;;;;;;;;4993789;28;20113;-65
2022/12/22 07:31:08;;;;;;;25.58;15.05;;;;;;;;;;4994291;28;20022;-64
2022/12/22 07:33:33;;;;;;;28.67;16.42;;;;;;;;;;4994069;28;20105;-65
2022/12/22 07:36:10;;;;;;;27.95;15.27;;;;;;;;;;4994018;28;20021;-65
2022/12/22 07:38:38;;;;;;;29.02;15.68;;;;;;;;;;4994066;28;20034;-66
2022/12/22 07:43:56;;;;;;;15.80;8.10;;;;;;;;;;4933689;29;20144;-64
2022/12/22 07:46:23;;;;;;;27.42;16.55;;;;;;;;;;4933922;29;20031;-64
2022/12/22 07:51:35;;;;;;;29.13;16.33;;;;;;;;;;4953402;29;20598;-66
2022/12/22 07:54:03;;;;;;;28.67;16.40;;;;;;;;;;4948905;29;20019;-67
2022/12/22 07:56:28;;;;;;;27.38;16.23;;;;;;;;;;4940726;29;20035;-66
2022/12/22 07:58:54;;;;;;;27.98;16.52;;;;;;;;;;4941792;29;20577;-66
2022/12/22 08:01:19;;;;;;;31.98;17.38;;;;;;;;;;4947812;29;20447;-65
2022/12/22 08:03:45;;;;;;;28.83;16.35;;;;;;;;;;4936609;29;20040;-65
2022/12/22 08:06:10;;;;;;;29.08;16.45;;;;;;;;;;4948134;28;20086;-66
2022/12/22 08:08:36;;;;;;;31.63;17.92;;;;;;;;;;4952645;29;20143;-65
2022/12/22 08:11:02;;;;;;;31.05;16.48;;;;;;;;;;4952915;29;20027;-65
2022/12/22 08:13:27;;;;;;;27.13;15.43;;;;;;;;;;4952971;29;20481;-65
2022/12/22 08:15:52;;;;;;;27.80;15.82;;;;;;;;;;4952629;29;20039;-65
2022/12/22 08:18:18;;;;;;;24.48;14.43;;;;;;;;;;4952633;29;20089;-65
2022/12/22 08:20:50;;;;;;;30.02;16.90;;;;;;;;;;4970375;28;20042;-65
2022/12/22 08:23:17;;;;;;;25.42;15.43;;;;;;;;;;4992159;28;20546;-66
2022/12/22 08:25:43;;;;;;;28.65;14.70;;;;;;;;;;5001419;28;20124;-66
2022/12/22 08:28:10;;;;;;;32.00;16.63;;;;;;;;;;4992345;28;20114;-66
2022/12/22 08:30:35;;;;;;;28.23;15.15;;;;;;;;;;4993594;28;20469;-65
2022/12/22 08:33:01;;;;;;;27.02;14.93;;;;;;;;;;4993532;28;20054;-66
2022/12/22 08:35:27;;;;;;;29.77;15.63;;;;;;;;;;4993459;28;20022;-67
2022/12/22 08:37:53;;;;;;;32.72;17.13;;;;;;;;;;4993431;28;20473;-65
2022/12/22 08:40:22;;;;;;;35.58;16.58;;;;;;;;;;4992658;28;20045;-65
2022/12/22 08:42:51;;;;;;;30.98;17.27;;;;;;;;;;4992057;28;20034;-66
2022/12/22 08:45:16;;;;;;;30.00;15.10;;;;;;;;;;4993090;28;20072;-66
2022/12/22 08:47:42;;;;;;;31.10;16.90;;;;;;;;;;4992993;28;20637;-66
2022/12/22 08:50:08;;;;;;;35.88;17.50;;;;;;;;;;4993136;28;20031;-65
2022/12/22 08:52:33;;;;;;;33.33;18.83;;;;;;;;;;4993179;28;20030;-65
2022/12/22 08:54:59;;;;;;;32.47;17.98;;;;;;;;;;4992857;28;20022;-65
2022/12/22 08:57:24;;;;;;;30.95;17.52;;;;;;;;;;4993066;28;20069;-65
2022/12/22 08:59:49;;;;;;;30.48;14.82;;;;;;;;;;4993224;28;20026;-65
2022/12/22 09:02:15;;;;;;;31.48;16.90;;;;;;;;;;4992873;28;20026;-67
2022/12/22 09:04:40;;;;;;;32.92;16.30;;;;;;;;;;4992981;28;20026;-65
2022/12/22 09:07:06;;;;;;;31.38;16.70;;;;;;;;;;4991313;28;20065;-65
2022/12/22 09:09:33;;;;;;;33.05;16.30;;;;;;;;;;4992735;28;20110;-66
2022/12/22 09:12:00;;;;;;;30.15;16.25;;;;;;;;;;4993031;28;20030;-65
2022/12/22 09:14:27;;;;;;;29.55;15.55;;;;;;;;;;4992854;28;20371;-65
2022/12/22 09:16:53;;;;;;;32.25;16.70;;;;;;;;;;4993098;28;20505;-67
2022/12/22 09:19:18;;;;;;;30.00;16.75;;;;;;;;;;4992778;28;20042;-65
2022/12/22 09:21:44;;;;;;;29.33;15.38;;;;;;;;;;4992898;28;20030;-65
2022/12/22 09:24:10;;;;;;;27.70;16.00;;;;;;;;;;4992230;28;20104;-66
2022/12/22 09:26:35;;;;;;;28.13;15.85;;;;;;;;;;5008958;28;20500;-65
2022/12/22 09:29:02;;;;;;;29.35;16.45;;;;;;;;;;5012213;28;20124;-65
2022/12/22 09:31:28;;;;;;;24.25;13.70;;;;;;;;;;5012068;28;20052;-65
2022/12/22 09:33:54;;;;;;;26.70;14.23;;;;;;;;;;5015748;28;20037;-65
2022/12/22 09:36:23;;;;;;;28.33;14.23;;;;;;;;;;4998190;28;20026;-66
2022/12/22 09:38:49;;;;;;;26.88;14.07;;;;;;;;;;4994145;28;20030;-66
2022/12/22 09:41:54;;;;;;;25.00;14.07;;;;;;;;;;4996263;28;20105;-66
2022/12/22 09:44:31;;;;;;;27.63;14.30;;;;;;;;;;4987446;28;20057;-65
2022/12/22 09:46:59;;;;;;;27.52;13.75;;;;;;;;;;4996359;28;20065;-65
2022/12/22 09:49:25;;;;;;;27.15;15.20;;;;;;;;;;4996334;28;20026;-64
2022/12/22 09:51:54;;;;;;;29.25;15.00;;;;;;;;;;4996470;28;20034;-66
2022/12/22 09:54:20;;;;;;;31.05;15.48;;;;;;;;;;4995834;28;20113;-65
2022/12/22 09:56:46;;;;;;;26.60;14.25;;;;;;;;;;4996199;28;20484;-64
2022/12/22 09:59:14;;;;;;;24.35;13.07;;;;;;;;;;4994623;28;20113;-64
2022/12/22 10:01:57;;;;;;;27.38;14.63;;;;;;;;;;4996337;28;20033;-65
2022/12/22 10:04:38;;;;;;;28.38;14.82;;;;;;;;;;4995877;28;20529;-65
2022/12/22 10:07:24;;;;;;;31.15;15.40;;;;;;;;;;4995601;28;20084;-65
2022/12/22 10:09:50;;;;;;;26.92;14.65;;;;;;;;;;4995749;28;20026;-64
2022/12/22 10:12:18;;;;;;;29.63;15.32;;;;;;;;;;4995882;28;20015;-67
2022/12/22 10:14:49;;;;;;;31.90;15.63;;;;;;;;;;4995887;28;20026;-65
2022/12/22 10:17:28;;;;;;;;;;;;;;;;;;4995005;28;20448;-67
2022/12/22 10:20:06;;;;;;;29.65;15.55;;;;;;;;;;4995695;28;20376;-67
2022/12/22 10:22:34;;;;;;;31.65;15.77;;;;;;;;;;4995429;28;20524;-67
2022/12/22 10:25:04;;;;;;;31.05;15.77;;;;;;;;;;4991895;28;20047;-66
2022/12/22 10:27:32;;;;;;;31.70;16.38;;;;;;;;;;4975788;28;20034;-67
2022/12/22 10:30:23;;;;;;;33.10;16.98;;;;;;;;;;4984642;28;20036;-67
2022/12/22 10:33:08;;;;;;;32.30;17.27;;;;;;;;;;4995699;28;20469;-67
2022/12/22 10:35:56;;;;;;;30.25;17.35;;;;;;;;;;4992137;28;20030;-67
2022/12/22 10:38:32;;;;;;;29.40;15.15;;;;;;;;;;4993445;28;20026;-66
2022/12/22 10:41:01;;;;;;;30.95;15.55;;;;;;;;;;4995245;28;20038;-66
2022/12/22 10:43:28;;;;;;;30.05;16.05;;;;;;;;;;4991862;28;20041;-65
2022/12/22 10:45:55;;;;;;;31.90;16.52;;;;;;;;;;4995470;28;20505;-67
2022/12/22 10:48:32;;;;;;;29.95;16.63;;;;;;;;;;4994957;28;20046;-66
2022/12/22 10:50:59;;;;;;;30.92;16.55;;;;;;;;;;4995073;28;20096;-65
2022/12/22 10:53:53;;;;;;;31.52;16.42;;;;;;;;;;4995163;28;20466;-64
2022/12/22 10:56:21;;;;;;;28.35;15.95;;;;;;;;;;4994850;28;20041;-67
2022/12/22 10:58:53;;;;;;;25.90;15.90;;;;;;;;;;4994916;28;20033;-65
2022/12/22 11:01:30;;;;;;;28.52;16.23;;;;;;;;;;4995065;28;20066;-65
2022/12/22 11:03:57;;;;;;;28.45;16.05;;;;;;;;;;4995031;28;20028;-65
2022/12/22 11:06:23;;;;;;;27.65;16.27;;;;;;;;;;4994174;28;20042;-67
2022/12/22 11:08:49;;;;;;;28.60;15.35;;;;;;;;;;4994784;28;20030;-65
2022/12/22 11:11:36;;;;;;;27.30;16.23;;;;;;;;;;4994824;28;20022;-65
2022/12/22 11:14:26;;;;;;;29.92;17.33;;;;;;;;;;4994757;28;20045;-67
2022/12/22 11:17:00;;;;;;;28.88;16.63;;;;;;;;;;4994962;28;20027;-65
2022/12/22 11:19:45;;;;;;;28.80;16.95;;;;;;;;;;4994265;28;20030;-65
2022/12/22 11:22:10;;;;;;;29.70;16.08;;;;;;;;;;4994636;28;20035;-66
2022/12/22 11:24:57;;;;;;;28.08;17.23;;;;;;;;;;4994541;28;20046;-64
2022/12/22 11:27:40;;;;;;;22.85;14.02;;;;;;;;;;5013981;28;20029;-65
2022/12/22 11:30:19;;;;;;;27.52;15.45;;;;;;;;;;5013793;28;20026;-66
2022/12/22 11:32:52;;;;;;;27.48;16.17;;;;;;;;;;5013893;28;20030;-67
2022/12/22 11:35:57;;;;;;;27.48;15.75;;;;;;;;;;5013929;28;20034;-66
2022/12/22 11:38:44;;;;;;;29.27;14.05;;;;;;;;;;5013730;28;20144;-65
2022/12/22 11:41:24;;;;;;;27.10;15.27;;;;;;;;;;5013845;28;20028;-65
2022/12/22 11:44:16;;;;;;;24.60;13.88;;;;;;;;;;5013909;28;20056;-65
2022/12/22 11:46:52;;;;;;;26.95;16.10;;;;;;;;;;5011455;28;20107;-64
2022/12/22 11:49:38;;;;;;;23.05;14.75;;;;;;;;;;5013416;28;20032;-64
2022/12/22 11:52:14;;;;;;;31.00;16.75;;;;;;;;;;5013186;28;20112;-65
2022/12/22 11:54:47;;;;;;;27.40;16.63;;;;;;;;;;5013291;28;20041;-63
2022/12/22 11:57:16;;;;;;;29.95;15.25;;;;;;;;;;5013418;28;20518;-63
2022/12/22 11:59:41;;;;;;;31.67;17.15;;;;;;;;;;5013426;28;20458;-64
2022/12/22 12:02:40;;;;;;;32.10;17.05;;;;;;;;;;5011897;28;20033;-63
2022/12/22 12:05:14;;;;;;;32.55;16.65;;;;;;;;;;5013294;28;20068;-64
2022/12/22 12:08:04;;;;;;;28.33;16.52;;;;;;;;;;4998796;28;20435;-63
2022/12/22 12:10:43;;;;;;;36.38;17.02;;;;;;;;;;4993081;28;20026;-63
2022/12/22 12:13:30;;;;;;;30.95;16.98;;;;;;;;;;4993172;28;20054;-64
2022/12/22 12:16:07;;;;;;;32.47;16.05;;;;;;;;;;4992959;28;20106;-63
2022/12/22 12:18:54;;;;;;;35.10;17.83;;;;;;;;;;4977086;28;20030;-64
2022/12/22 12:21:20;;;;;;;29.50;16.48;;;;;;;;;;4993123;28;20493;-66
2022/12/22 12:24:13;;;;;;;32.22;17.25;;;;;;;;;;4992983;28;20377;-64
2022/12/22 12:26:54;;;;;;;31.08;16.80;;;;;;;;;;5009924;28;20038;-63
2022/12/22 12:29:34;;;;;;;;;;;;;;;;;;5013130;28;20125;-64
2022/12/22 12:32:11;;;;;;;35.08;18.55;;;;;;;;;;5003711;28;19973;-64
2022/12/22 12:34:41;;;;;;;30.08;17.73;;;;;;;;;;4992887;28;20045;-66
2022/12/22 12:37:16;;;;;;;35.05;19.70;;;;;;;;;;4992714;28;20030;-66
2022/12/22 12:40:00;;;;;;;35.28;18.83;;;;;;;;;;4992681;28;20018;-65
2022/12/22 12:42:25;;;;;;;34.25;16.95;;;;;;;;;;4992280;28;20057;-64
2022/12/22 12:44:52;;;;;;;25.52;14.90;;;;;;;;;;4992724;28;20474;-64
2022/12/22 12:47:26;;;;;;;30.15;17.20;;;;;;;;;;4992269;28;20022;-65
2022/12/22 12:50:30;;;;;;;30.42;16.45;;;;;;;;;;4992700;28;20022;-65
2022/12/22 12:52:56;;;;;;;29.83;16.45;;;;;;;;;;4992674;28;20445;-65
2022/12/22 12:55:33;;;;;;;29.92;16.48;;;;;;;;;;4992537;28;20045;-65
2022/12/22 12:58:02;;;;;;;29.45;15.85;;;;;;;;;;4992413;28;20058;-65
2022/12/22 13:00:31;;;;;;;24.42;16.02;;;;;;;;;;4992457;28;20074;-66
2022/12/22 13:03:01;;;;;;;29.10;17.17;;;;;;;;;;4992708;28;20034;-65
2022/12/22 13:05:35;;;;;;;28.85;16.15;;;;;;;;;;4992807;28;20029;-65
2022/12/22 13:08:15;;;;;;;29.08;17.00;;;;;;;;;;4991710;28;20069;-66
2022/12/22 13:10:41;;;;;;;26.23;15.10;;;;;;;;;;4992883;28;20019;-65
2022/12/22 13:13:32;;;;;;;38.33;17.08;;;;;;;;;;4992088;28;20093;-65
2022/12/22 13:16:06;;;;;;;31.38;16.08;;;;;;;;;;4970146;28;20053;-66
2022/12/22 13:18:37;;;;;;;30.77;16.38;;;;;;;;;;4992209;28;20030;-67
2022/12/22 13:21:15;;;;;;;29.60;16.50;;;;;;;;;;4992194;28;20033;-68
2022/12/22 13:24:10;;;;;;;31.40;16.55;;;;;;;;;;4992227;28;20034;-67
2022/12/22 13:26:38;;;;;;;27.65;15.88;;;;;;;;;;4999720;28;20121;-67
2022/12/22 13:29:15;;;;;;;32.33;16.80;;;;;;;;;;4992037;28;20382;-65
2022/12/22 13:31:48;;;;;;;28.92;15.15;;;;;;;;;;4992146;28;20030;-65
2022/12/22 13:34:38;;;;;;;26.85;15.50;;;;;;;;;;4991814;28;20034;-67
2022/12/22 13:37:23;;;;;;;36.30;16.60;;;;;;;;;;4992181;28;20030;-66
2022/12/22 13:40:07;;;;;;;31.35;15.85;;;;;;;;;;4992261;28;20034;-67
2022/12/22 13:42:45;;;;;;;26.98;15.75;;;;;;;;;;4992082;28;20123;-67
2022/12/22 13:45:57;;;;;;;26.83;15.93;;;;;;;;;;4991936;28;20117;-67
2022/12/22 13:48:29;;;;;;;27.63;15.07;;;;;;;;;;4928706;29;20058;-67
2022/12/22 13:51:01;;;;;;;24.45;14.48;;;;;;;;;;4932290;29;20083;-67
2022/12/22 13:53:40;;;;;;;28.23;15.35;;;;;;;;;;4932127;29;20050;-67
2022/12/22 13:56:14;;;;;;;27.27;15.52;;;;;;;;;;4932028;29;20036;-67
2022/12/22 13:58:45;;;;;;;27.15;16.15;;;;;;;;;;4931484;29;20039;-67
2022/12/22 14:01:10;;;;;;;;;;;;;;;;;;4932706;29;20479;-67
2022/12/22 14:03:48;;;;;;;26.60;14.68;;;;;;;;;;4932330;29;19942;-66
2022/12/22 14:06:27;;;;;;;27.30;15.70;;;;;;;;;;4932069;29;20046;-65
2022/12/22 14:08:53;;;;;;;27.52;14.65;;;;;;;;;;4932462;29;20059;-65
2022/12/22 14:11:18;;;;;;;28.02;15.57;;;;;;;;;;4932594;29;20040;-65
2022/12/22 14:13:44;;;;;;;28.40;15.05;;;;;;;;;;4931236;29;20475;-66
2022/12/22 14:16:14;;;;;;;29.00;15.40;;;;;;;;;;4931951;29;20490;-66
2022/12/22 14:18:40;;;;;;;29.13;15.82;;;;;;;;;;4933292;29;20118;-66
2022/12/22 14:21:07;;;;;;;34.88;16.70;;;;;;;;;;4936566;29;20036;-65
2022/12/22 14:23:37;;;;;;;31.52;16.35;;;;;;;;;;4935678;29;20031;-67
2022/12/22 14:26:04;;;;;;;37.47;15.90;;;;;;;;;;4978625;28;20050;-65
2022/12/22 14:28:41;;;;;;;31.08;16.33;;;;;;;;;;4975634;28;20122;-65
2022/12/22 14:31:11;;;;;;;33.92;16.65;;;;;;;;;;4975959;28;20037;-65
2022/12/22 14:33:38;;;;;;;32.40;16.55;;;;;;;;;;4993476;28;20414;-66
2022/12/22 14:36:22;;;;;;;38.33;18.95;;;;;;;;;;4995163;28;20023;-65
2022/12/22 14:38:53;;;;;;;44.75;20.10;;;;;;;;;;4995314;28;20027;-67
2022/12/22 14:41:40;;;;;;;57.92;23.05;;;;;;;;;;4995380;28;20110;-65
2022/12/22 14:44:19;;;;;;;54.45;25.10;;;;;;;;;;4994879;28;20018;-66
2022/12/22 14:47:05;;;;;;;59.05;24.98;;;;;;;;;;4994895;28;20454;-66
2022/12/22 14:49:31;;;;;;;58.90;24.13;;;;;;;;;;4995148;28;20084;-67
2022/12/22 14:52:05;;;;;;;58.88;23.80;;;;;;;;;;4995490;28;20022;-68
2022/12/22 14:54:31;;;;;;;55.58;23.25;;;;;;;;;;4995073;28;20119;-67
2022/12/22 14:57:02;;;;;;;48.42;21.55;;;;;;;;;;4994611;28;20162;-68
2022/12/22 14:59:28;;;;;;;60.58;20.80;;;;;;;;;;4994936;28;20054;-68
2022/12/22 15:02:03;;;;;;;57.13;21.90;;;;;;;;;;4994888;28;20135;-67
2022/12/22 15:04:29;;;;;;;62.97;19.77;;;;;;;;;;4994777;28;20018;-67
2022/12/22 15:07:14;;;;;;;43.25;18.95;;;;;;;;;;4994558;28;20113;-66
2022/12/22 15:09:39;;;;;;;59.50;18.75;;;;;;;;;;4994818;28;20022;-68
2022/12/22 15:12:11;;;;;;;57.72;19.95;;;;;;;;;;4994614;28;20027;-68
2022/12/22 15:14:37;;;;;;;64.78;20.42;;;;;;;;;;4994800;28;20397;-68
2022/12/22 15:17:04;;;;;;;53.10;19.00;;;;;;;;;;4994441;28;20038;-68
2022/12/22 15:19:32;;;;;;;43.67;17.95;;;;;;;;;;4994792;28;20377;-68
2022/12/22 15:21:58;;;;;;;51.40;17.00;;;;;;;;;;4994739;28;20109;-66
2022/12/22 15:24:24;;;;;;;48.53;16.70;;;;;;;;;;4994312;28;20149;-68
2022/12/22 15:26:49;;;;;;;38.03;16.70;;;;;;;;;;4976062;28;20780;-67
2022/12/22 15:29:15;;;;;;;40.33;16.05;;;;;;;;;;4974841;28;20144;-68
2022/12/22 15:31:41;;;;;;;42.80;17.13;;;;;;;;;;4974130;28;20031;-67
2022/12/22 15:34:29;;;;;;;33.08;15.23;;;;;;;;;;4974837;28;20089;-67
2022/12/22 15:36:55;;;;;;;40.38;15.45;;;;;;;;;;4975134;28;20037;-66
2022/12/22 15:39:22;;;;;;;34.53;15.95;;;;;;;;;;4974905;28;20023;-68
2022/12/22 15:41:47;;;;;;;34.17;16.38;;;;;;;;;;4990126;28;20030;-67
2022/12/22 15:44:13;;;;;;;30.52;15.30;;;;;;;;;;4994202;28;20435;-68
2022/12/22 15:46:41;;;;;;;31.30;15.73;;;;;;;;;;4993628;28;20031;-68
2022/12/22 15:49:19;;;;;;;33.28;17.00;;;;;;;;;;4993828;28;20026;-67
2022/12/22 15:51:48;;;;;;;28.35;15.60;;;;;;;;;;4993928;28;20132;-65
2022/12/22 15:54:14;;;;;;;33.08;16.13;;;;;;;;;;4993715;28;20525;-66
2022/12/22 15:56:41;;;;;;;30.42;17.35;;;;;;;;;;4993145;28;20037;-67
2022/12/22 15:59:13;;;;;;;33.13;16.88;;;;;;;;;;4993788;28;20074;-67
2022/12/22 16:01:38;;;;;;;29.60;15.90;;;;;;;;;;4994012;28;20029;-67
2022/12/22 16:04:04;;;;;;;27.27;14.32;;;;;;;;;;4993751;28;20022;-67
2022/12/22 16:06:29;;;;;;;25.80;14.60;;;;;;;;;;4993741;28;20030;-67
2022/12/22 16:08:55;;;;;;;28.95;15.85;;;;;;;;;;4993719;28;20461;-66
2022/12/22 16:11:20;;;;;;;27.58;14.90;;;;;;;;;;4993406;28;20037;-68
2022/12/22 16:13:48;;;;;;;28.98;15.38;;;;;;;;;;4993393;28;20382;-67
2022/12/22 16:16:13;;;;;;;28.65;15.93;;;;;;;;;;4992798;28;20038;-66
2022/12/22 16:18:39;;;;;;;25.27;14.32;;;;;;;;;;4993309;28;20026;-67
2022/12/22 16:21:07;;;;;;;25.10;14.00;;;;;;;;;;4993444;28;20113;-67
2022/12/22 16:23:35;;;;;;;23.70;14.13;;;;;;;;;;4993187;28;20027;-68
2022/12/22 16:26:01;;;;;;;42.67;20.15;;;;;;;;;;4981854;28;20030;-67
2022/12/22 16:28:27;;;;;;;33.35;17.48;;;;;;;;;;4973724;28;20027;-67
2022/12/22 16:30:53;;;;;;;36.40;17.52;;;;;;;;;;4974038;28;20493;-68
2022/12/22 16:33:19;;;;;;;42.22;21.77;;;;;;;;;;4973961;28;20048;-67
2022/12/22 16:35:44;;;;;;;44.10;20.55;;;;;;;;;;4973863;28;20504;-66
2022/12/22 16:38:10;;;;;;;45.20;20.13;;;;;;;;;;4973665;28;20378;-66
2022/12/22 16:40:43;;;;;;;27.08;16.50;;;;;;;;;;4973710;28;20023;-65
2022/12/22 16:43:37;;;;;;;40.42;21.13;;;;;;;;;;4973698;28;20045;-66
2022/12/22 16:46:04;;;;;;;32.97;19.10;;;;;;;;;;4973710;28;20065;-67
2022/12/22 16:48:38;;;;;;;34.80;19.05;;;;;;;;;;4973238;28;20038;-66
2022/12/22 16:51:05;;;;;;;33.38;18.02;;;;;;;;;;4973458;28;20110;-66
2022/12/22 16:53:30;;;;;;;35.08;19.55;;;;;;;;;;4973377;28;20030;-65
2022/12/22 16:55:58;;;;;;;46.50;21.40;;;;;;;;;;4973514;28;20535;-65
2022/12/22 16:58:24;;;;;;;61.95;23.48;;;;;;;;;;4973340;28;20478;-68
2022/12/22 17:00:49;;;;;;;54.00;20.75;;;;;;;;;;4973478;28;20050;-67
2022/12/22 17:03:20;;;;;;;56.60;25.52;;;;;;;;;;4990056;28;20370;-66
2022/12/22 17:05:49;;;;;;;55.30;22.08;;;;;;;;;;4992771;28;20091;-67
2022/12/22 17:08:28;;;;;;;43.15;20.73;;;;;;;;;;4992412;28;20120;-66
2022/12/22 17:10:55;;;;;;;36.28;19.00;;;;;;;;;;4992565;28;20026;-67
2022/12/22 17:13:21;;;;;;;38.42;19.00;;;;;;;;;;4992960;28;20022;-67
2022/12/22 17:15:46;;;;;;;59.78;24.80;;;;;;;;;;4992739;28;20033;-67
2022/12/22 17:18:17;;;;;;;45.40;21.60;;;;;;;;;;4992697;28;20034;-67
2022/12/22 17:20:44;;;;;;;42.65;20.98;;;;;;;;;;4992779;28;20032;-67
2022/12/22 17:23:23;;;;;;;45.45;23.73;;;;;;;;;;4992547;28;20056;-66
2022/12/22 17:25:48;;;;;;;76.78;26.48;;;;;;;;;;4982475;28;20046;-68
2022/12/22 17:28:13;;;;;;;67.80;24.65;;;;;;;;;;4972826;28;20081;-68
2022/12/22 17:30:39;;;;;;;75.97;26.83;;;;;;;;;;4973287;28;20081;-68
2022/12/22 17:33:04;;;;;;;79.05;28.05;;;;;;;;;;4973289;28;20077;-68
2022/12/22 17:35:32;;;;;;;57.70;26.40;;;;;;;;;;4973142;28;20034;-68
2022/12/22 17:37:57;;;;;;;92.53;30.00;;;;;;;;;;4972936;28;20030;-66
2022/12/22 17:40:29;;;;;;;82.95;30.00;;;;;;;;;;4971893;28;20080;-68
2022/12/22 17:42:57;;;;;;;72.30;26.83;;;;;;;;;;4973239;28;20441;-68
2022/12/22 17:45:23;;;;;;;60.25;27.30;;;;;;;;;;4973093;28;20023;-67
2022/12/22 17:47:48;;;;;;;64.93;28.38;;;;;;;;;;4973031;28;20042;-68
2022/12/22 17:50:17;;;;;;;53.45;22.17;;;;;;;;;;4973143;28;20386;-66
2022/12/22 17:52:43;;;;;;;67.85;26.17;;;;;;;;;;4972888;28;20023;-67
2022/12/22 17:55:21;;;;;;;61.17;24.85;;;;;;;;;;4976605;28;20497;-68
2022/12/22 17:57:47;;;;;;;53.00;21.90;;;;;;;;;;4976539;28;20394;-65
2022/12/22 18:00:30;;;;;;;40.58;19.55;;;;;;;;;;4988080;28;20030;-66
2022/12/22 18:02:56;;;;;;;52.63;22.38;;;;;;;;;;4995698;28;20031;-65
2022/12/22 18:05:25;;;;;;;49.45;21.65;;;;;;;;;;4995615;28;20331;-67
2022/12/22 18:07:53;;;;;;;36.55;18.55;;;;;;;;;;4995782;28;20029;-67
2022/12/22 18:10:23;;;;;;;42.45;22.05;;;;;;;;;;4996487;28;20034;-67
2022/12/22 18:12:52;;;;;;;46.00;20.67;;;;;;;;;;4995971;28;20433;-68
2022/12/22 18:15:24;;;;;;;36.80;20.05;;;;;;;;;;4992690;28;20088;-68